Time;durP1;ratioP1;P1;durP2;ratioP2;P2;SDS_P1;SDS_P2;PMS_P1;PMS_P2;Temp;Humidity;BMP_temperature;BMP_pressure;BME280_temperature;BME280_humidity;BME280_pressure;Samples;Min_cycle;Max_cycle;Signal;HPM_P1;HPM_P2
2022/03/06 00:00:49;;;;;;;5.27;3.00;;;0.90;99.90;;;;;;5014793;28;20227;-69
2022/03/06 00:03:17;;;;;;;4.70;3.10;;;0.90;99.90;;;;;;5015067;28;20211;-67
2022/03/06 00:05:44;;;;;;;4.67;3.30;;;0.90;99.90;;;;;;5015264;28;20207;-68
2022/03/06 00:08:12;;;;;;;6.70;3.60;;;1.00;99.90;;;;;;5015129;28;20218;-68
2022/03/06 00:10:39;;;;;;;6.60;3.40;;;1.00;99.90;;;;;;5014891;28;20242;-67
2022/03/06 00:13:06;;;;;;;6.10;3.70;;;1.00;99.90;;;;;;5014814;28;20215;-67
2022/03/06 00:15:33;;;;;;;5.50;3.70;;;1.10;99.90;;;;;;5015130;28;20578;-69
2022/03/06 00:18:00;;;;;;;8.00;3.60;;;1.00;99.90;;;;;;5014537;28;20202;-66
2022/03/06 00:20:29;;;;;;;6.17;3.70;;;1.00;99.90;;;;;;5015018;28;20211;-68
2022/03/06 00:22:56;;;;;;;6.97;3.70;;;1.10;99.90;;;;;;5014391;28;20237;-68
2022/03/06 00:25:23;;;;;;;7.07;3.93;;;1.10;99.90;;;;;;5014735;28;20218;-68
2022/03/06 00:27:50;;;;;;;6.37;3.87;;;1.10;99.90;;;;;;5014852;28;20202;-67
2022/03/06 00:30:18;;;;;;;4.63;3.20;;;1.00;99.90;;;;;;5014788;28;20207;-68
2022/03/06 00:32:45;;;;;;;5.93;3.63;;;1.00;99.90;;;;;;5014629;28;20203;-69
2022/03/06 00:35:12;;;;;;;6.30;3.77;;;1.00;99.90;;;;;;5014658;28;20718;-68
2022/03/06 00:37:40;;;;;;;6.23;3.37;;;0.90;99.90;;;;;;5014420;28;20202;-68
2022/03/06 00:40:09;;;;;;;4.23;3.10;;;1.00;99.90;;;;;;5014578;28;20211;-66
2022/03/06 00:42:36;;;;;;;4.53;3.17;;;0.90;99.90;;;;;;5014273;28;20223;-67
2022/03/06 00:45:04;;;;;;;5.07;3.23;;;0.90;99.90;;;;;;5014406;28;20219;-67
2022/03/06 00:47:31;;;;;;;5.83;3.03;;;0.90;99.90;;;;;;5014183;28;20211;-68
2022/03/06 00:49:59;;;;;;;4.07;3.10;;;0.90;99.90;;;;;;5014022;28;20203;-68
2022/03/06 00:52:27;;;;;;;4.73;2.90;;;0.90;99.90;;;;;;5014404;28;20290;-67
2022/03/06 00:54:55;;;;;;;5.37;3.30;;;0.90;99.90;;;;;;5014235;28;20202;-67
2022/03/06 00:57:22;;;;;;;5.40;2.93;;;0.90;99.90;;;;;;5013940;28;20213;-68
2022/03/06 00:59:49;;;;;;;3.37;2.70;;;0.80;99.90;;;;;;5013718;28;20223;-68
2022/03/06 01:02:17;;;;;;;4.03;2.73;;;0.80;99.90;;;;;;5013859;28;20231;-68
2022/03/06 01:04:44;;;;;;;4.20;3.00;;;0.80;99.90;;;;;;5013988;28;20213;-67
2022/03/06 01:07:11;;;;;;;5.07;3.27;;;0.80;99.90;;;;;;5013887;28;20215;-68
2022/03/06 01:09:38;;;;;;;6.30;3.60;;;0.80;99.90;;;;;;5014178;28;20202;-68
2022/03/06 01:12:07;;;;;;;6.70;3.40;;;0.70;99.90;;;;;;5013735;28;20199;-67
2022/03/06 01:14:35;;;;;;;5.90;3.60;;;0.80;99.90;;;;;;5013909;28;20603;-67
2022/03/06 01:17:02;;;;;;;4.83;3.43;;;0.80;99.90;;;;;;5013624;28;20207;-67
2022/03/06 01:19:29;;;;;;;5.43;3.23;;;0.80;99.90;;;;;;5013991;28;20203;-67
2022/03/06 01:21:56;;;;;;;5.67;3.30;;;0.80;99.90;;;;;;5013314;28;20223;-68
2022/03/06 01:24:23;;;;;;;5.93;3.87;;;0.80;99.90;;;;;;5013536;28;20207;-68
2022/03/06 01:26:50;;;;;;;5.87;3.20;;;0.70;99.90;;;;;;5013324;28;20206;-67
2022/03/06 01:29:22;;;;;;;6.33;3.47;;;0.70;99.90;;;;;;5013451;28;20216;-68
2022/03/06 01:31:49;;;;;;;7.00;3.47;;;0.80;99.90;;;;;;5013659;28;20187;-67
2022/03/06 01:34:16;;;;;;;6.17;3.63;;;0.80;99.90;;;;;;5013367;28;20207;-67
2022/03/06 01:36:43;;;;;;;6.57;3.47;;;0.80;99.90;;;;;;5013147;28;20211;-67
2022/03/06 01:39:11;;;;;;;5.93;3.63;;;0.90;99.90;;;;;;5013647;28;20642;-67
2022/03/06 01:41:38;;;;;;;6.57;3.83;;;0.90;99.90;;;;;;5013012;28;20218;-67
2022/03/06 01:44:06;;;;;;;5.70;3.47;;;0.90;99.90;;;;;;5013106;28;20217;-67
2022/03/06 01:46:34;;;;;;;5.63;3.33;;;0.90;99.90;;;;;;5013339;28;20211;-67
2022/03/06 01:49:02;;;;;;;7.13;3.77;;;1.00;99.90;;;;;;5013327;28;20213;-67
2022/03/06 01:51:29;;;;;;;7.13;3.83;;;1.00;99.90;;;;;;5013022;28;20251;-67
2022/03/06 01:53:56;;;;;;;6.97;3.90;;;1.00;99.90;;;;;;5012808;28;20213;-68
2022/03/06 01:56:23;;;;;;;6.03;3.60;;;1.00;99.90;;;;;;5012883;28;20214;-67
2022/03/06 01:58:51;;;;;;;6.93;4.07;;;1.00;99.90;;;;;;5012740;28;20234;-67
2022/03/06 02:01:18;;;;;;;5.93;3.70;;;1.00;99.90;;;;;;5012702;28;20233;-67
2022/03/06 02:03:47;;;;;;;6.00;4.00;;;1.00;99.90;;;;;;5013004;28;20206;-67
2022/03/06 02:06:16;;;;;;;6.40;4.00;;;1.00;99.90;;;;;;5012954;28;20206;-68
2022/03/06 02:08:43;;;;;;;5.70;3.80;;;0.90;99.90;;;;;;5012412;28;20535;-68
2022/03/06 02:11:10;;;;;;;5.33;3.60;;;0.90;99.90;;;;;;5012381;28;20260;-67
2022/03/06 02:13:38;;;;;;;5.57;3.90;;;0.90;99.90;;;;;;5012532;28;20199;-67
2022/03/06 02:16:06;;;;;;;5.57;3.97;;;1.00;99.90;;;;;;5012637;28;20207;-67
2022/03/06 02:18:33;;;;;;;6.83;3.67;;;1.00;99.90;;;;;;5012389;28;20218;-68
2022/03/06 02:21:09;;;;;;;6.60;3.80;;;1.00;99.90;;;;;;5012504;28;20225;-68
2022/03/06 02:23:37;;;;;;;7.00;4.00;;;1.00;99.90;;;;;;5012347;28;20221;-68
2022/03/06 02:26:04;;;;;;;6.27;3.80;;;0.90;99.90;;;;;;5012413;28;20202;-68
2022/03/06 02:28:31;;;;;;;6.50;4.20;;;0.90;99.90;;;;;;5012372;28;20221;-68
2022/03/06 02:30:59;;;;;;;7.40;4.60;;;0.80;99.90;;;;;;5012661;28;20792;-68
2022/03/06 02:33:26;;;;;;;8.63;5.23;;;0.80;99.90;;;;;;5012380;28;20211;-67
2022/03/06 02:35:54;;;;;;;10.27;5.00;;;0.70;99.90;;;;;;5012339;28;20211;-67
2022/03/06 02:38:22;;;;;;;8.17;5.10;;;0.60;99.90;;;;;;5012578;28;20230;-67
2022/03/06 02:40:52;;;;;;;9.37;5.50;;;0.60;99.90;;;;;;5012109;28;20203;-67
2022/03/06 02:43:20;;;;;;;10.97;6.10;;;0.60;99.90;;;;;;5012465;28;20249;-68
2022/03/06 02:45:47;;;;;;;13.80;7.80;;;0.40;99.90;;;;;;5012042;28;20299;-66
2022/03/06 02:48:14;;;;;;;22.97;9.43;;;0.30;99.90;;;;;;5012370;28;20656;-66
2022/03/06 02:50:41;;;;;;;17.33;8.43;;;0.20;99.90;;;;;;5011936;28;20217;-69
2022/03/06 02:53:10;;;;;;;18.23;8.60;;;0.20;99.90;;;;;;5012416;28;20199;-67
2022/03/06 02:55:40;;;;;;;17.73;8.93;;;0.20;99.90;;;;;;5011908;28;20210;-68
2022/03/06 02:58:07;;;;;;;18.60;10.00;;;0.20;99.90;;;;;;5012269;28;20206;-67
2022/03/06 03:00:34;;;;;;;18.53;9.37;;;0.20;99.90;;;;;;5012069;28;20571;-69
2022/03/06 03:03:01;;;;;;;24.07;13.53;;;0.20;99.90;;;;;;5012110;28;20577;-68
2022/03/06 03:05:29;;;;;;;33.60;15.67;;;0.20;99.90;;;;;;5012179;28;20727;-67
2022/03/06 03:07:57;;;;;;;39.10;16.73;;;0.20;99.90;;;;;;5012183;28;20290;-67
2022/03/06 03:10:26;;;;;;;32.00;14.23;;;0.20;99.90;;;;;;5011757;28;20238;-67
2022/03/06 03:12:55;;;;;;;22.53;11.17;;;0.20;99.90;;;;;;5011819;28;20211;-67
2022/03/06 03:15:22;;;;;;;19.10;9.20;;;0.20;99.90;;;;;;5011984;28;20669;-68
2022/03/06 03:17:50;;;;;;;16.93;8.07;;;0.20;99.90;;;;;;5011956;28;20676;-67
2022/03/06 03:20:17;;;;;;;14.37;7.20;;;0.20;99.90;;;;;;5011688;28;20206;-69
2022/03/06 03:22:45;;;;;;;11.20;7.20;;;0.20;99.90;;;;;;5014606;28;20598;-67
2022/03/06 03:25:12;;;;;;;13.27;6.40;;;0.20;99.90;;;;;;5016081;28;20211;-67
2022/03/06 03:27:40;;;;;;;9.67;5.90;;;0.30;99.90;;;;;;5015820;28;20572;-68
2022/03/06 03:30:10;;;;;;;12.10;6.70;;;0.30;99.90;;;;;;5015730;28;20210;-67
2022/03/06 03:32:38;;;;;;;12.83;6.70;;;0.30;99.90;;;;;;5015529;28;20198;-68
2022/03/06 03:35:05;;;;;;;14.03;6.30;;;0.40;99.90;;;;;;5015478;28;20215;-67
2022/03/06 03:37:33;;;;;;;15.90;7.20;;;0.40;99.90;;;;;;5015749;28;20206;-68
2022/03/06 03:40:00;;;;;;;14.47;7.93;;;0.40;99.90;;;;;;5015360;28;20210;-68
2022/03/06 03:42:27;;;;;;;15.93;8.60;;;0.30;99.90;;;;;;5015435;28;20223;-68
2022/03/06 03:44:54;;;;;;;12.60;7.30;;;0.30;99.90;;;;;;5015682;28;20207;-68
2022/03/06 03:47:23;;;;;;;17.90;7.87;;;0.30;99.90;;;;;;5015164;28;20215;-67
2022/03/06 03:49:50;;;;;;;14.03;7.20;;;0.30;99.90;;;;;;5015525;28;20202;-67
2022/03/06 03:52:17;;;;;;;12.30;7.23;;;0.20;99.90;;;;;;5015337;28;20210;-67
2022/03/06 03:54:44;;;;;;;11.97;7.03;;;0.30;99.90;;;;;;5015527;28;20560;-68
2022/03/06 03:57:13;;;;;;;12.23;7.17;;;0.30;99.90;;;;;;5015395;28;20213;-68
2022/03/06 03:59:41;;;;;;;16.57;7.83;;;0.30;99.90;;;;;;5014796;28;20321;-68
2022/03/06 04:02:08;;;;;;;13.30;7.80;;;0.30;99.90;;;;;;5014934;28;20210;-67
2022/03/06 04:04:37;;;;;;;13.30;7.17;;;0.30;99.90;;;;;;5015135;28;20691;-67
2022/03/06 04:07:04;;;;;;;16.13;7.53;;;0.30;99.90;;;;;;5015531;28;20675;-67
2022/03/06 04:09:31;;;;;;;13.43;6.93;;;0.30;99.90;;;;;;5015020;28;20206;-67
2022/03/06 04:11:59;;;;;;;12.93;7.40;;;0.20;99.90;;;;;;5014633;28;20238;-68
2022/03/06 04:14:26;;;;;;;16.33;7.83;;;0.20;99.90;;;;;;5014624;28;20253;-67
2022/03/06 04:16:53;;;;;;;14.93;7.60;;;0.30;99.90;;;;;;5014843;28;20203;-67
2022/03/06 04:19:20;;;;;;;15.70;7.77;;;0.20;99.90;;;;;;5014546;28;20207;-68
2022/03/06 04:21:49;;;;;;;17.70;8.73;;;0.20;99.90;;;;;;5014708;28;20210;-67
2022/03/06 04:24:16;;;;;;;17.23;9.00;;;0.10;99.90;;;;;;5014639;28;20241;-67
2022/03/06 04:26:43;;;;;;;18.30;9.07;;;0.00;99.90;;;;;;5014948;28;20210;-68
2022/03/06 04:29:10;;;;;;;20.93;10.10;;;-0.10;99.90;;;;;;5014572;28;20203;-69
2022/03/06 04:31:37;;;;;;;17.97;9.97;;;-0.10;99.90;;;;;;5014449;28;20215;-68
2022/03/06 04:34:04;;;;;;;19.90;9.80;;;-0.10;99.90;;;;;;5014002;28;20203;-68
2022/03/06 04:36:32;;;;;;;18.77;9.40;;;-0.10;99.90;;;;;;5014627;28;20567;-67
2022/03/06 04:39:00;;;;;;;15.57;9.10;;;-0.10;99.90;;;;;;5014371;28;20210;-69
2022/03/06 04:41:27;;;;;;;17.00;8.93;;;-0.10;99.90;;;;;;5014092;28;20210;-67
2022/03/06 04:43:55;;;;;;;16.43;8.90;;;-0.10;99.90;;;;;;5014164;28;20227;-69
2022/03/06 04:46:22;;;;;;;15.33;8.00;;;0.00;99.90;;;;;;5014504;28;20691;-67
2022/03/06 04:48:49;;;;;;;16.33;8.60;;;0.00;99.90;;;;;;5014240;28;20225;-68
2022/03/06 04:51:17;;;;;;;13.37;7.63;;;0.00;99.90;;;;;;5014225;28;20617;-68
2022/03/06 04:53:44;;;;;;;15.07;7.50;;;0.00;99.90;;;;;;5014470;28;20561;-68
2022/03/06 04:56:13;;;;;;;16.50;7.67;;;0.10;99.90;;;;;;5013804;28;20214;-68
2022/03/06 04:58:40;;;;;;;12.57;6.97;;;0.10;99.90;;;;;;5014300;28;20587;-68
2022/03/06 05:01:08;;;;;;;11.43;6.67;;;0.10;99.90;;;;;;5013800;28;20238;-69
2022/03/06 05:03:35;;;;;;;11.03;6.40;;;0.20;99.90;;;;;;5014075;28;20230;-67
2022/03/06 05:06:02;;;;;;;8.70;5.40;;;0.20;99.90;;;;;;5013918;28;20213;-68
2022/03/06 05:08:29;;;;;;;8.10;5.37;;;0.30;99.90;;;;;;5013805;28;20214;-68
2022/03/06 05:10:57;;;;;;;12.33;5.93;;;0.30;99.90;;;;;;5013448;28;20243;-67
2022/03/06 05:13:26;;;;;;;11.10;6.60;;;0.40;99.90;;;;;;5013878;28;20661;-68
2022/03/06 05:15:53;;;;;;;10.90;5.90;;;0.40;99.90;;;;;;5013701;28;20214;-67
2022/03/06 05:18:20;;;;;;;13.20;6.47;;;0.40;99.90;;;;;;5013435;28;20213;-68
2022/03/06 05:20:48;;;;;;;11.00;6.23;;;0.40;99.90;;;;;;5013957;28;20534;-67
2022/03/06 05:23:16;;;;;;;15.93;6.63;;;0.40;99.90;;;;;;5013365;28;20230;-67
2022/03/06 05:25:43;;;;;;;12.23;6.80;;;0.40;99.90;;;;;;5013713;28;20478;-68
2022/03/06 05:28:10;;;;;;;14.13;7.13;;;0.40;99.90;;;;;;5013607;28;20203;-68
2022/03/06 05:30:39;;;;;;;14.57;7.53;;;0.30;99.90;;;;;;5013557;28;20202;-67
2022/03/06 05:33:06;;;;;;;16.93;7.57;;;0.30;99.90;;;;;;5013345;28;20292;-68
2022/03/06 05:35:34;;;;;;;13.23;7.50;;;0.30;99.90;;;;;;5013543;28;20203;-67
2022/03/06 05:38:01;;;;;;;15.37;7.87;;;0.30;99.90;;;;;;5013477;28;20562;-67
2022/03/06 05:40:28;;;;;;;15.90;7.80;;;0.30;99.90;;;;;;5013511;28;20559;-67
2022/03/06 05:42:55;;;;;;;14.63;7.57;;;0.20;99.90;;;;;;5013087;28;20349;-67
2022/03/06 05:45:22;;;;;;;15.27;7.13;;;0.30;99.90;;;;;;5012609;28;20553;-69
2022/03/06 05:47:51;;;;;;;13.67;7.40;;;0.30;99.90;;;;;;5013653;28;20207;-67
2022/03/06 05:50:18;;;;;;;14.17;7.00;;;0.40;99.90;;;;;;5012929;28;20218;-67
2022/03/06 05:52:48;;;;;;;15.23;7.17;;;0.50;99.90;;;;;;5013313;28;20233;-69
2022/03/06 05:55:16;;;;;;;13.13;6.70;;;0.50;99.90;;;;;;5012874;28;20218;-69
2022/03/06 05:57:44;;;;;;;11.97;6.50;;;0.50;99.90;;;;;;5012912;28;20207;-68
2022/03/06 06:00:13;;;;;;;13.73;6.90;;;0.50;99.90;;;;;;5012643;28;20234;-68
2022/03/06 06:02:40;;;;;;;12.40;6.60;;;0.60;99.90;;;;;;5012728;28;20207;-68
2022/03/06 06:05:10;;;;;;;11.43;6.60;;;0.70;99.90;;;;;;5013068;28;20230;-67
2022/03/06 06:07:38;;;;;;;10.60;6.30;;;0.80;99.90;;;;;;5012803;28;20209;-68
2022/03/06 06:10:07;;;;;;;12.40;6.33;;;0.80;99.90;;;;;;5012679;28;20675;-68
2022/03/06 06:12:34;;;;;;;9.30;5.80;;;0.90;99.90;;;;;;5013060;28;20207;-67
2022/03/06 06:15:01;;;;;;;10.53;6.07;;;0.90;99.90;;;;;;5012827;28;20206;-68
2022/03/06 06:17:28;;;;;;;9.10;4.80;;;0.90;99.90;;;;;;5012673;28;20207;-68
2022/03/06 06:19:55;;;;;;;8.50;4.80;;;0.90;99.90;;;;;;5012729;28;20554;-67
2022/03/06 06:22:24;;;;;;;8.40;5.00;;;0.80;99.90;;;;;;5012481;28;20203;-67
2022/03/06 06:24:51;;;;;;;8.13;5.07;;;0.90;99.90;;;;;;5012633;28;20233;-67
2022/03/06 06:27:18;;;;;;;12.70;6.47;;;1.00;99.90;;;;;;5012314;28;20211;-68
2022/03/06 06:29:45;;;;;;;10.97;5.80;;;1.10;99.90;;;;;;5012360;28;20264;-68
2022/03/06 06:32:13;;;;;;;13.67;6.50;;;1.10;99.90;;;;;;5012427;28;20557;-68
2022/03/06 06:34:40;;;;;;;12.83;6.67;;;1.20;99.90;;;;;;5012617;28;20302;-67
2022/03/06 06:37:08;;;;;;;12.50;6.47;;;1.20;99.90;;;;;;5012464;28;20210;-68
2022/03/06 06:39:36;;;;;;;14.70;6.87;;;1.20;99.90;;;;;;5012605;28;20720;-68
2022/03/06 06:42:05;;;;;;;12.70;6.97;;;1.20;99.90;;;;;;5012264;28;20715;-68
2022/03/06 06:44:32;;;;;;;13.53;7.00;;;1.30;99.90;;;;;;5012322;28;20256;-67
2022/03/06 06:46:59;;;;;;;13.80;7.00;;;1.40;99.90;;;;;;5012229;28;20226;-68
2022/03/06 06:49:26;;;;;;;13.23;7.13;;;1.30;99.90;;;;;;5012321;28;20698;-68
2022/03/06 06:51:54;;;;;;;11.47;5.90;;;1.20;99.90;;;;;;5011789;28;20206;-67
2022/03/06 06:54:21;;;;;;;12.73;5.80;;;1.20;99.90;;;;;;5012012;28;20202;-69
2022/03/06 06:56:50;;;;;;;10.03;5.30;;;1.30;99.90;;;;;;5012056;28;20691;-68
2022/03/06 06:59:17;;;;;;;10.27;5.90;;;1.30;99.90;;;;;;5011864;28;20278;-67
2022/03/06 07:01:44;;;;;;;12.83;5.97;;;1.20;99.90;;;;;;5012246;28;20233;-68
2022/03/06 07:04:11;;;;;;;8.93;4.50;;;1.20;99.90;;;;;;5011806;28;20223;-68
2022/03/06 07:06:38;;;;;;;7.20;4.00;;;1.30;99.90;;;;;;5011915;28;20217;-68
2022/03/06 07:09:05;;;;;;;5.93;3.97;;;1.30;99.90;;;;;;5011605;28;20203;-68
2022/03/06 07:11:33;;;;;;;6.80;3.90;;;1.40;99.90;;;;;;5012171;28;20238;-68
2022/03/06 07:14:01;;;;;;;6.17;3.70;;;1.40;99.90;;;;;;5011803;28;20210;-68
2022/03/06 07:16:28;;;;;;;7.30;4.07;;;1.50;99.90;;;;;;5011776;28;20209;-68
2022/03/06 07:18:55;;;;;;;5.80;3.77;;;1.50;99.90;;;;;;5011978;28;20687;-67
2022/03/06 07:21:23;;;;;;;5.63;4.00;;;1.50;99.90;;;;;;5011688;28;20301;-68
2022/03/06 07:23:50;;;;;;;5.80;3.90;;;1.50;99.90;;;;;;5011506;28;20226;-68
2022/03/06 07:26:17;;;;;;;6.60;4.10;;;1.60;99.90;;;;;;5011840;28;20687;-67
2022/03/06 07:28:44;;;;;;;5.93;3.87;;;1.60;99.90;;;;;;5011626;28;20211;-67
2022/03/06 07:31:12;;;;;;;6.67;4.40;;;1.60;99.90;;;;;;5011602;28;20221;-68
2022/03/06 07:33:39;;;;;;;8.50;4.40;;;1.50;99.90;;;;;;5011573;28;20222;-67
2022/03/06 07:36:07;;;;;;;7.03;4.43;;;1.50;99.90;;;;;;5011491;28;20211;-67
2022/03/06 07:38:34;;;;;;;7.57;4.60;;;1.50;99.90;;;;;;5011503;28;20301;-67
2022/03/06 07:41:01;;;;;;;8.30;4.77;;;1.60;99.90;;;;;;5012040;28;20672;-67
2022/03/06 07:43:28;;;;;;;8.83;4.53;;;1.70;99.90;;;;;;5011369;28;20219;-68
2022/03/06 07:45:55;;;;;;;10.57;5.30;;;1.80;99.90;;;;;;5011555;28;20226;-67
2022/03/06 07:48:24;;;;;;;8.70;5.23;;;1.90;99.90;;;;;;5011676;28;20277;-68
2022/03/06 07:50:51;;;;;;;9.93;5.23;;;2.00;99.90;;;;;;5011614;28;20572;-67
2022/03/06 07:53:18;;;;;;;10.50;5.40;;;2.10;99.90;;;;;;5011324;28;20207;-67
2022/03/06 07:55:46;;;;;;;12.07;5.53;;;2.20;99.90;;;;;;5011301;28;20202;-68
2022/03/06 07:58:13;;;;;;;9.43;5.53;;;2.30;99.90;;;;;;5011661;28;20214;-68
2022/03/06 08:00:40;;;;;;;7.63;5.20;;;2.30;99.90;;;;;;5011288;28;20235;-68
2022/03/06 08:03:07;;;;;;;9.70;5.63;;;2.40;99.90;;;;;;5011202;28;20298;-67
2022/03/06 08:05:35;;;;;;;9.73;5.97;;;2.40;99.90;;;;;;5011688;28;20226;-68
2022/03/06 08:08:03;;;;;;;8.07;5.40;;;2.40;99.90;;;;;;5012929;28;20203;-66
2022/03/06 08:10:30;;;;;;;8.83;5.30;;;2.50;99.90;;;;;;5014765;28;20245;-67
2022/03/06 08:12:57;;;;;;;10.57;6.40;;;2.40;99.90;;;;;;5014668;28;20202;-68
2022/03/06 08:15:24;;;;;;;8.33;5.30;;;2.20;99.90;;;;;;5014761;28;20217;-69
2022/03/06 08:17:51;;;;;;;8.93;5.97;;;2.20;99.90;;;;;;5014804;28;20203;-68
2022/03/06 08:20:18;;;;;;;10.43;6.03;;;2.20;99.90;;;;;;5014808;28;20206;-70
2022/03/06 08:22:47;;;;;;;11.57;6.03;;;2.20;99.90;;;;;;5014476;28;20214;-68
2022/03/06 08:25:15;;;;;;;10.07;5.47;;;2.20;99.90;;;;;;5014600;28;20235;-68
2022/03/06 08:27:42;;;;;;;10.67;6.37;;;2.30;99.90;;;;;;5014704;28;20246;-67
2022/03/06 08:30:10;;;;;;;11.03;7.00;;;2.40;99.90;;;;;;5015376;28;20213;-68
2022/03/06 08:32:38;;;;;;;11.00;5.90;;;2.50;99.90;;;;;;5014520;28;20218;-67
2022/03/06 08:35:06;;;;;;;15.13;7.60;;;2.50;99.90;;;;;;5014684;28;20203;-67
2022/03/06 08:37:33;;;;;;;13.93;8.23;;;2.60;99.90;;;;;;5014820;28;20575;-67
2022/03/06 08:40:03;;;;;;;14.67;8.93;;;2.70;99.90;;;;;;5014333;28;20216;-67
2022/03/06 08:42:31;;;;;;;13.63;8.60;;;2.80;99.90;;;;;;5015085;28;20210;-68
2022/03/06 08:44:58;;;;;;;14.90;8.23;;;2.80;99.90;;;;;;5014287;28;20710;-67
2022/03/06 08:47:25;;;;;;;15.83;8.03;;;2.80;99.90;;;;;;5014447;28;20524;-68
2022/03/06 08:49:52;;;;;;;16.30;8.53;;;2.90;99.90;;;;;;5014039;28;20211;-67
2022/03/06 08:52:19;;;;;;;16.07;8.10;;;2.90;99.90;;;;;;5014085;28;20210;-69
2022/03/06 08:54:46;;;;;;;14.57;7.80;;;3.00;99.90;;;;;;5013978;28;20203;-68
2022/03/06 08:57:15;;;;;;;11.10;7.47;;;3.10;99.90;;;;;;5014264;28;20600;-68
2022/03/06 08:59:42;;;;;;;13.33;6.70;;;3.10;99.90;;;;;;5013849;28;20228;-67
2022/03/06 09:02:09;;;;;;;11.47;7.03;;;3.20;99.90;;;;;;5014176;28;20202;-68
2022/03/06 09:04:36;;;;;;;11.70;7.20;;;3.30;99.90;;;;;;5013957;28;20455;-68
2022/03/06 09:07:04;;;;;;;11.30;6.27;;;3.40;99.90;;;;;;5014067;28;20251;-68
2022/03/06 09:09:31;;;;;;;12.40;7.07;;;3.40;99.90;;;;;;5013997;28;20206;-68
2022/03/06 09:11:58;;;;;;;11.67;6.43;;;3.40;99.90;;;;;;5013540;28;20328;-68
2022/03/06 09:14:27;;;;;;;10.80;6.50;;;3.40;99.90;;;;;;5013793;28;20203;-69
2022/03/06 09:16:54;;;;;;;10.90;6.60;;;3.40;99.90;;;;;;5013854;28;20211;-68
2022/03/06 09:19:21;;;;;;;10.90;6.60;;;3.50;99.90;;;;;;5013877;28;20204;-67
2022/03/06 09:21:48;;;;;;;12.23;6.73;;;3.50;99.90;;;;;;5013300;28;20301;-67
2022/03/06 09:24:15;;;;;;;11.37;6.80;;;3.60;99.90;;;;;;5013441;28;20317;-68
2022/03/06 09:26:43;;;;;;;11.83;6.60;;;3.60;99.90;;;;;;5013730;28;20206;-69
2022/03/06 09:29:10;;;;;;;11.77;6.57;;;3.60;99.90;;;;;;5013769;28;20206;-67
2022/03/06 09:31:39;;;;;;;11.73;7.13;;;3.60;99.90;;;;;;5013544;28;20206;-69
2022/03/06 09:34:07;;;;;;;11.30;6.83;;;3.50;99.90;;;;;;5013698;28;20543;-68
2022/03/06 09:36:35;;;;;;;14.57;7.10;;;3.50;99.90;;;;;;5013461;28;20565;-68
2022/03/06 09:39:02;;;;;;;12.90;7.73;;;3.50;99.90;;;;;;5013296;28;20213;-66
2022/03/06 09:41:29;;;;;;;13.67;7.63;;;3.60;99.90;;;;;;5013154;28;20377;-67
2022/03/06 09:43:57;;;;;;;12.87;7.53;;;3.60;99.90;;;;;;5013320;28;20665;-68
2022/03/06 09:46:25;;;;;;;14.10;7.63;;;3.70;99.90;;;;;;5013319;28;20694;-67
2022/03/06 09:48:54;;;;;;;12.90;7.17;;;3.70;99.90;;;;;;5012962;28;20217;-68
2022/03/06 09:51:21;;;;;;;10.53;6.57;;;3.70;99.90;;;;;;5013350;28;20206;-67
2022/03/06 09:53:49;;;;;;;14.53;6.93;;;3.80;99.90;;;;;;5013194;28;20211;-69
2022/03/06 09:56:16;;;;;;;12.90;7.30;;;3.80;99.90;;;;;;5012976;28;20246;-67
2022/03/06 09:58:44;;;;;;;14.47;7.63;;;3.60;99.90;;;;;;5012683;28;20223;-67
2022/03/06 10:01:12;;;;;;;11.77;7.50;;;3.60;99.90;;;;;;5013212;28;20730;-67
2022/03/06 10:03:39;;;;;;;13.37;7.07;;;3.60;99.90;;;;;;5012676;28;20301;-68
2022/03/06 10:06:09;;;;;;;14.07;7.43;;;3.60;99.90;;;;;;5012915;28;20230;-68
2022/03/06 10:08:36;;;;;;;13.80;7.60;;;3.60;99.90;;;;;;5013002;28;20202;-68
2022/03/06 10:11:06;;;;;;;14.80;8.03;;;3.60;99.90;;;;;;5012678;28;20234;-68
2022/03/06 10:13:35;;;;;;;13.30;7.47;;;3.50;99.90;;;;;;5012724;28;20203;-68
2022/03/06 10:16:05;;;;;;;14.73;8.20;;;3.40;99.90;;;;;;5012565;28;20213;-67
2022/03/06 10:18:34;;;;;;;17.63;9.37;;;3.40;99.90;;;;;;5012356;28;20221;-67
2022/03/06 10:21:20;;;;;;;14.27;8.07;;;3.40;99.90;;;;;;5012413;28;20290;-68
2022/03/06 10:23:49;;;;;;;14.60;9.40;;;3.50;99.90;;;;;;5012529;28;20191;-68
2022/03/06 10:26:18;;;;;;;18.23;8.40;;;3.50;99.90;;;;;;5012486;28;20237;-67
2022/03/06 10:28:49;;;;;;;15.93;8.63;;;3.50;99.90;;;;;;5012159;28;20207;-67
2022/03/06 10:31:17;;;;;;;16.23;8.93;;;3.50;99.90;;;;;;5011885;28;20198;-68
2022/03/06 10:33:56;;;;;;;16.50;8.33;;;3.50;99.90;;;;;;5012181;28;20218;-67
2022/03/06 10:36:39;;;;;;;15.30;7.83;;;3.50;99.90;;;;;;5012506;28;20592;-67
2022/03/06 10:39:12;;;;;;;13.60;8.07;;;3.50;99.90;;;;;;5012628;28;20600;-68
2022/03/06 10:41:41;;;;;;;12.07;7.80;;;3.60;99.90;;;;;;5012598;28;20221;-67
2022/03/06 10:44:10;;;;;;;14.37;7.73;;;3.60;99.90;;;;;;5012133;28;20202;-67
2022/03/06 10:46:38;;;;;;;12.90;8.30;;;3.60;99.90;;;;;;5012323;28;20542;-69
2022/03/06 10:49:13;;;;;;;19.23;8.33;;;3.50;99.90;;;;;;5012048;28;20206;-67
2022/03/06 10:51:44;;;;;;;10.90;6.33;;;3.40;99.90;;;;;;5011882;28;20187;-68
2022/03/06 10:54:13;;;;;;;14.90;7.13;;;3.40;99.90;;;;;;5012380;28;20607;-68
2022/03/06 10:56:40;;;;;;;10.10;5.73;;;3.30;99.90;;;;;;5012054;28;20567;-69
2022/03/06 10:59:08;;;;;;;9.57;6.00;;;3.20;99.90;;;;;;5012126;28;20229;-67
2022/03/06 11:01:37;;;;;;;15.10;8.13;;;3.20;99.90;;;;;;5011828;28;20202;-67
2022/03/06 11:04:07;;;;;;;16.90;9.27;;;3.20;99.90;;;;;;5011946;28;20253;-68
2022/03/06 11:06:40;;;;;;;19.63;10.63;;;3.20;99.90;;;;;;5011793;28;20222;-68
2022/03/06 11:09:11;;;;;;;18.30;10.73;;;3.00;99.90;;;;;;5011970;28;20195;-68
2022/03/06 11:11:41;;;;;;;24.57;11.67;;;2.80;99.90;;;;;;5011644;28;20285;-68
2022/03/06 11:14:09;;;;;;;22.00;12.40;;;2.80;99.90;;;;;;5012027;28;20253;-67
2022/03/06 11:16:38;;;;;;;22.97;11.53;;;2.80;99.90;;;;;;5011778;28;20222;-68
2022/03/06 11:19:06;;;;;;;19.33;10.20;;;2.80;99.90;;;;;;5012069;28;20229;-68
2022/03/06 11:21:34;;;;;;;17.73;10.40;;;2.80;99.90;;;;;;5011724;28;20217;-67
2022/03/06 11:24:07;;;;;;;17.37;10.00;;;2.90;99.90;;;;;;5012187;28;20213;-67
2022/03/06 11:27:33;;;;;;;17.43;9.80;;;2.90;99.90;;;;;;5011592;28;20211;-67
2022/03/06 11:30:06;;;;;;;16.13;9.27;;;2.90;99.90;;;;;;4894259;29;20677;-67
2022/03/06 11:32:36;;;;;;;16.43;9.63;;;2.90;99.90;;;;;;4999197;28;20215;-67
2022/03/06 11:35:09;;;;;;;16.50;9.30;;;3.00;99.90;;;;;;5011741;28;20208;-68
2022/03/06 11:37:52;;;;;;;16.00;8.93;;;3.00;99.90;;;;;;5011635;28;20203;-68
2022/03/06 11:40:40;;;;;;;13.37;7.10;;;3.10;99.90;;;;;;5010200;28;20214;-68
2022/03/06 11:43:09;;;;;;;12.70;7.60;;;3.10;99.90;;;;;;5013404;28;20195;-68
2022/03/06 11:45:52;;;;;;;15.73;7.73;;;3.20;99.90;;;;;;5015510;28;20230;-67
2022/03/06 11:48:41;;;;;;;14.50;6.87;;;3.20;99.90;;;;;;5015293;28;20203;-67
2022/03/06 11:51:19;;;;;;;10.33;6.20;;;3.10;99.90;;;;;;5005453;28;20206;-70
2022/03/06 11:53:51;;;;;;;14.93;8.47;;;3.10;99.90;;;;;;5015621;28;20214;-68
2022/03/06 11:57:04;;;;;;;13.37;8.60;;;3.10;99.90;;;;;;5015376;28;20191;-66
2022/03/06 11:59:34;;;;;;;15.10;8.90;;;3.00;99.90;;;;;;5015348;28;20259;-67
2022/03/06 12:02:07;;;;;;;17.37;9.00;;;3.00;99.90;;;;;;5015106;28;20233;-67
2022/03/06 12:04:38;;;;;;;15.77;8.77;;;3.00;99.90;;;;;;5015233;28;20198;-67
2022/03/06 12:07:07;;;;;;;20.37;10.53;;;3.10;99.90;;;;;;5015293;28;20291;-68
2022/03/06 12:09:36;;;;;;;18.00;9.63;;;3.20;99.90;;;;;;5014998;28;20228;-67
2022/03/06 12:12:07;;;;;;;19.00;10.77;;;3.10;99.90;;;;;;5014871;28;20770;-67
2022/03/06 12:14:36;;;;;;;21.40;11.97;;;3.10;99.90;;;;;;5015422;28;20560;-68
2022/03/06 12:17:31;;;;;;;20.27;11.10;;;3.20;99.90;;;;;;5015190;28;20294;-69
2022/03/06 12:20:28;;;;;;;17.97;11.20;;;3.20;99.90;;;;;;5015047;28;20202;-68
2022/03/06 12:23:02;;;;;;;21.23;11.10;;;3.20;99.90;;;;;;5015019;28;20187;-67
2022/03/06 12:25:31;;;;;;;19.43;11.13;;;3.20;99.90;;;;;;5014772;28;20210;-68
2022/03/06 12:28:42;;;;;;;18.20;10.33;;;3.20;99.90;;;;;;5014480;28;20210;-67
2022/03/06 12:31:35;;;;;;;19.90;9.60;;;3.30;99.90;;;;;;5014727;28;20187;-67
2022/03/06 12:34:37;;;;;;;16.67;8.30;;;3.30;99.90;;;;;;5014717;28;20223;-68
2022/03/06 12:37:05;;;;;;;15.43;8.20;;;3.20;99.90;;;;;;5014531;28;20264;-67
2022/03/06 12:39:35;;;;;;;14.27;8.23;;;3.10;99.90;;;;;;5014276;28;20215;-68
2022/03/06 12:42:03;;;;;;;12.27;7.90;;;3.10;99.90;;;;;;5014379;28;20210;-68
2022/03/06 12:44:32;;;;;;;13.17;7.70;;;2.90;99.90;;;;;;5014102;28;20268;-66
2022/03/06 12:46:59;;;;;;;12.80;7.60;;;3.00;99.90;;;;;;5014239;28;20345;-68
2022/03/06 12:49:28;;;;;;;11.77;7.00;;;3.00;99.90;;;;;;5014116;28;20226;-69
2022/03/06 12:51:55;;;;;;;11.57;6.93;;;3.00;99.90;;;;;;5014376;28;20657;-67
2022/03/06 12:54:26;;;;;;;9.63;6.23;;;3.00;99.90;;;;;;5013643;28;20211;-68
2022/03/06 12:56:55;;;;;;;11.30;6.50;;;2.90;99.90;;;;;;5013853;28;20207;-67